Latest Weather Observations for Ulladulla

IDN60901

Issued at 9:51 pm EST Monday 25 July 2016 (issued every 10 minutes, with the page automatically refreshed every 10 minutes)

About weather observations | Map of Canberra area stations | Latest observations for Canberra area | Other Formats
Station Details ID: 069138 Name: ULLADULLA AWS Lat: -35.36 Lon: 150.48 Height: 35.7 m
Data from the previous 72 hours. | See also: Recent months at Ulladulla
Date/Time
EST
Temp
°C
App
Temp
°C
Dew
Point
°C
Rel
Hum
%
Delta-T
°C
Wind Press
QNH
hPa
Press
MSL
hPa
Rain since
9am
mm
Dir  Spd
km/h
Gust
km/h
Spd
kts
Gust
kts
25/09:30pm 11.2 8.5 2.5 55 3.8 NNW 6 9 3 5 1009.8 1009.8 0.0
25/09:00pm 12.0 7.3 3.0 54 4.0 NW 17 30 9 16 1009.9 1009.9 0.0
25/08:30pm 12.0 7.3 3.0 54 4.0 NW 17 28 9 15 1010.1 1010.1 0.0
25/08:00pm 12.0 7.7 3.5 56 3.8 NW 15 28 8 15 1010.1 1010.1 0.0
25/07:30pm 10.5 8.3 3.5 62 3.1 N 4 9 2 5 1010.2 1010.2 0.0
25/07:00pm 11.9 9.9 4.2 59 3.5 NNE 4 7 2 4 1010.2 1010.2 0.0
25/06:30pm 12.6 9.5 3.8 55 4.0 N 9 19 5 10 1009.9 1009.9 0.0
25/06:00pm 12.3 8.1 3.8 56 3.8 NW 15 22 8 12 1009.8 1009.8 0.0
25/05:30pm 12.5 8.6 3.2 53 4.1 NW 13 20 7 11 1009.8 1009.8 0.0
25/05:00pm 12.8 8.8 2.9 51 4.4 WNW 13 33 7 18 1010.0 1010.0 0.0
25/04:30pm 13.7 8.0 2.6 47 4.9 NW 22 32 12 17 1009.6 1009.6 0.0
25/04:00pm 14.3 9.1 2.5 45 5.2 NW 19 39 10 21 1009.4 1009.4 0.0
25/03:30pm 14.6 8.8 2.2 43 5.5 NW 22 39 12 21 1009.2 1009.2 0.0
25/03:00pm 15.2 9.8 2.4 42 5.7 WNW 20 39 11 21 1009.0 1009.0 0.0
25/02:30pm 15.7 10.8 2.2 40 6.0 W 17 32 9 17 1008.9 1008.9 0.0
25/02:00pm 15.4 10.4 1.5 39 6.1 WNW 17 32 9 17 1008.9 1008.9 0.0
25/01:30pm 15.7 10.3 2.5 41 5.9 W 20 35 11 19 1009.3 1009.3 0.0
25/01:00pm 15.8 11.1 2.9 42 5.9 WNW 17 32 9 17 1009.5 1009.5 0.0
25/12:30pm 15.4 10.2 2.6 42 5.7 WNW 19 30 10 16 1009.5 1009.5 0.0
25/12:00pm 15.3 10.1 2.5 42 5.7 W 19 37 10 20 1009.7 1009.7 0.0
25/11:30am 15.0 10.6 2.9 44 5.4 W 15 32 8 17 1009.8 1009.8 0.0
25/11:00am 14.5 9.8 3.0 46 5.2 W 17 32 9 17 1010.2 1010.2 0.0
25/10:30am 14.1 9.5 3.6 49 4.8 W 17 35 9 19 1010.4 1010.4 0.0
25/10:00am 13.6 9.8 3.7 51 4.5 WNW 13 28 7 15 1010.4 1010.4 0.0
25/09:30am 12.9 8.3 3.8 54 4.1 WNW 17 37 9 20 1010.3 1010.3 0.0
25/09:00am 12.4 8.6 3.9 56 3.8 WNW 13 28 7 15 1010.5 1010.5 0.0
25/08:30am 11.7 7.0 3.2 56 3.7 WNW 17 35 9 19 1010.2 1010.2 0.0
25/08:00am 10.7 7.6 3.5 61 3.2 WNW 9 17 5 9 1009.8 1009.8 0.0
25/07:30am 8.3 6.5 3.4 71 2.1 SW 2 4 1 2 1009.8 1009.8 0.0
25/07:00am 8.8 5.7 3.4 69 2.3 WSW 9 24 5 13 1009.2 1009.2 0.0
25/06:30am 7.9 5.1 3.0 71 2.1 SW 7 13 4 7 1008.9 1008.9 0.0
25/06:00am 8.2 5.3 2.7 68 2.3 SW 7 13 4 7 1008.5 1008.5 0.0
25/05:30am 8.8 5.5 2.4 64 2.7 SW 9 19 5 10 1008.4 1008.4 0.0
25/05:00am 9.0 5.3 2.3 63 2.8 SW 11 19 6 10 1008.0 1008.0 0.0
25/04:30am 9.3 6.0 2.4 62 2.9 SSW 9 17 5 9 1007.8 1007.8 0.0
25/04:00am 9.0 6.5 4.0 71 2.2 E 6 19 3 10 1007.5 1007.5 0.0
25/03:30am 7.6 6.0 2.5 70 2.1 CALM 0 0 0 0 1007.2 1007.2 0.0
25/03:00am 9.4 6.8 3.2 65 2.7 WNW 6 11 3 6 1007.5 1007.5 0.0
25/02:30am 10.7 6.5 3.7 62 3.1 NNW 15 37 8 20 1007.6 1007.6 0.0
25/02:00am 10.4 7.7 3.7 63 3.0 W 7 26 4 14 1008.3 1008.3 0.0
25/01:30am 11.2 7.4 3.7 60 3.3 NW 13 24 7 13 1008.3 1008.3 0.0
25/01:00am 10.6 7.5 3.4 61 3.2 NW 9 20 5 11 1008.2 1008.2 0.0
25/12:30am 10.0 7.2 3.3 63 2.9 NW 7 13 4 7 1008.4 1008.4 0.0
25/12:00am 10.7 6.8 3.5 61 3.2 NNW 13 22 7 12 1008.8 1008.8 0.0
 
Date/Time
EST
Temp
°C
App
Temp
°C
Dew
Point
°C
Rel
Hum
%
Delta-T
°C
Wind Press
QNH
hPa
Press
MSL
hPa
Rain since
9am
mm
Dir  Spd
km/h
Gust
km/h
Spd
kts
Gust
kts
24/11:30pm 10.5 8.3 3.5 62 3.1 N 4 15 2 8 1009.4 1009.4 0.0
24/11:00pm 9.4 5.8 2.7 63 2.9 NW 11 20 6 11 1009.8 1009.8 0.0
24/10:30pm 9.8 5.9 3.3 64 2.8 NNW 13 22 7 12 1009.9 1009.9 0.0
24/10:00pm 10.1 5.7 2.9 61 3.1 NNW 15 26 8 14 1010.5 1010.5 0.0
24/09:30pm 9.9 6.7 3.2 63 2.9 N 9 17 5 9 1010.7 1010.7 0.0
24/09:00pm 8.8 5.9 2.4 64 2.7 NNW 7 11 4 6 1010.7 1010.7 0.0
24/08:30pm 8.6 5.8 2.2 64 2.7 N 6 9 3 5 1011.1 1011.1 0.0
24/08:00pm 8.8 6.0 1.9 62 2.9 N 6 7 3 4 1011.3 1011.3 0.0
24/07:30pm 9.3 6.9 2.2 61 3.0 N 4 7 2 4 1011.2 1011.2 0.0
24/07:00pm 9.8 7.1 2.9 62 3.0 N 6 7 3 4 1011.3 1011.3 0.0
24/06:30pm 9.2 6.5 0.1 53 3.6 NNW 4 6 2 3 1011.2 1011.2 0.0
24/06:00pm 9.7 6.6 0.3 52 3.8 NW 6 9 3 5 1010.9 1010.9 0.0
24/05:30pm 9.9 6.8 0.3 51 3.9 NW 6 11 3 6 1010.8 1010.8 0.0
24/05:00pm 10.5 7.3 -0.3 47 4.3 W 6 13 3 7 1010.8 1010.8 0.0
24/04:30pm 12.0 8.2 -0.5 42 5.1 W 9 15 5 8 1010.6 1010.6 0.0
24/04:00pm 12.7 8.6 -0.5 40 5.4 WNW 11 19 6 10 1010.2 1010.2 0.0
24/03:30pm 13.1 7.6 -2.0 35 6.0 WNW 17 33 9 18 1010.4 1010.4 0.0
24/03:00pm 11.9 6.3 -2.7 36 5.6 WNW 17 35 9 19 1010.8 1010.8 0.0
24/02:30pm 13.0 7.6 -1.3 37 5.8 WNW 17 30 9 16 1011.2 1011.2 0.0
24/02:00pm 13.4 6.9 -2.1 34 6.2 WNW 22 33 12 18 1011.2 1011.2 0.0
24/01:30pm 14.0 9.0 -1.2 35 6.2 WNW 15 26 8 14 1011.3 1011.3 0.0
24/01:00pm 14.0 9.4 -1.2 35 6.2 WNW 13 24 7 13 1011.7 1011.7 0.0
24/12:30pm 14.2 9.9 -1.8 33 6.5 WNW 11 19 6 10 1012.4 1012.4 0.0
24/12:00pm 14.0 9.8 -0.8 36 6.1 WNW 11 19 6 10 1012.8 1012.8 0.0
24/11:30am 13.2 8.6 -1.2 37 5.8 NW 13 20 7 11 1013.4 1013.4 0.0
24/11:00am 13.2 9.5 -0.1 40 5.5 WNW 9 17 5 9 1013.8 1013.8 0.0
24/10:30am 12.5 7.9 -1.4 38 5.6 NW 13 19 7 10 1014.1 1014.1 0.0
24/10:00am 12.3 8.2 0.1 43 5.0 WNW 11 19 6 10 1014.3 1014.3 0.0
24/09:30am 12.0 8.4 0.5 45 4.8 W 9 15 5 8 1014.2 1014.2 0.0
24/09:00am 10.9 7.3 0.3 48 4.3 WNW 9 19 5 10 1014.2 1014.2 0.0
24/08:30am 9.8 5.6 -1.0 47 4.2 WNW 11 20 6 11 1014.1 1014.1 0.0
24/08:00am 9.0 4.7 -1.4 48 4.0 WNW 11 19 6 10 1013.8 1013.8 0.0
24/07:30am 7.8 3.2 -0.9 54 3.3 WNW 13 19 7 10 1013.8 1013.8 0.0
24/07:00am 6.9 2.7 -1.0 57 3.0 WNW 11 17 6 9 1013.5 1013.5 0.0
24/06:30am 7.0 2.4 -0.9 57 3.0 WNW 13 19 7 10 1013.4 1013.4 0.0
24/06:00am 7.0 2.8 -0.7 58 2.9 WNW 11 19 6 10 1013.4 1013.4 0.0
24/05:30am 7.1 2.6 -0.6 58 3.0 WNW 13 19 7 10 1013.0 1013.0 0.0
24/05:00am 6.9 2.8 -0.3 60 2.8 WNW 11 19 6 10 1012.8 1012.8 0.0
24/04:30am 7.4 3.3 -0.3 58 3.0 WNW 11 19 6 10 1012.8 1012.8 0.0
24/04:00am 7.4 2.9 -0.3 58 3.0 WNW 13 22 7 12 1012.6 1012.6 0.0
24/03:30am 7.5 3.4 -0.2 58 3.0 WNW 11 20 6 11 1012.2 1012.2 0.0
24/03:00am 7.4 2.9 -0.3 58 3.0 WNW 13 19 7 10 1012.1 1012.1 0.0
24/02:30am 7.5 3.3 -0.7 56 3.2 NW 11 19 6 10 1012.3 1012.3 0.0
24/02:00am 8.0 3.8 -1.2 52 3.5 NW 11 19 6 10 1012.4 1012.4 0.0
24/01:30am 8.4 3.8 -1.4 50 3.7 NW 13 20 7 11 1012.3 1012.3 0.0
24/01:00am 8.4 3.8 -1.1 51 3.7 WNW 13 20 7 11 1012.3 1012.3 0.0
24/12:30am 8.8 3.8 -1.3 49 3.9 WNW 15 26 8 14 1012.1 1012.1 0.0
24/12:00am 8.8 3.8 -1.3 49 3.9 WNW 15 26 8 14 1012.1 1012.1 0.0
 
Date/Time
EST
Temp
°C
App
Temp
°C
Dew
Point
°C
Rel
Hum
%
Delta-T
°C
Wind Press
QNH
hPa
Press
MSL
hPa
Rain since
9am
mm
Dir  Spd
km/h
Gust
km/h
Spd
kts
Gust
kts
23/11:30pm 8.8 4.2 -1.0 50 3.8 WNW 13 22 7 12 1011.9 1011.9 0.0
23/11:00pm 9.1 4.5 -0.8 50 3.9 WNW 13 20 7 11 1011.5 1011.5 0.0
23/10:30pm 9.2 4.6 -0.7 50 3.9 WNW 13 22 7 12 1011.5 1011.5 0.0
23/10:00pm 9.3 5.1 -0.8 49 4.0 WNW 11 22 6 12 1011.2 1011.2 0.0
23/09:30pm 9.5 5.3 -0.9 48 4.1 WNW 11 24 6 13 1010.6 1010.6 0.0
23/09:00pm 9.8 5.5 -1.3 46 4.3 WNW 11 26 6 14 1010.2 1010.2 0.0
23/08:30pm 10.0 5.1 -0.8 47 4.3 WNW 15 24 8 13 1009.9 1009.9 0.0
23/08:00pm 9.8 6.1 -0.1 50 4.0 WNW 9 22 5 12 1009.7 1009.7 0.0
23/07:30pm 10.1 5.5 -0.7 47 4.3 WNW 13 20 7 11 1008.9 1008.9 0.0
23/07:00pm 10.4 5.8 -0.7 46 4.4 W 13 22 7 12 1008.5 1008.5 0.0
23/06:30pm 10.8 6.2 -1.3 43 4.8 WNW 13 22 7 12 1008.1 1008.1 0.0
23/06:00pm 11.0 6.2 -2.4 39 5.2 WNW 13 22 7 12 1007.1 1007.1 0.0
23/05:30pm 11.6 5.7 -2.2 38 5.4 WNW 19 35 10 19 1006.0 1006.0 0.0
23/05:00pm 12.3 6.9 -1.2 39 5.4 WNW 17 30 9 16 1005.1 1005.1 0.0
23/04:30pm 13.4 8.2 0.4 41 5.5 W 17 28 9 15 1004.8 1004.8 0.0
23/04:00pm 14.1 9.3 0.0 38 5.9 W 15 32 8 17 1004.3 1004.3 0.0
23/03:30pm 14.5 9.7 0.4 38 6.0 W 15 44 8 24 1003.6 1003.6 0.0
23/03:00pm 15.0 10.7 1.2 39 6.0 W 13 41 7 22 1003.2 1003.2 0.0
23/02:30pm 15.0 9.6 1.2 39 6.0 W 19 50 10 27 1002.2 1002.2 0.0
23/02:00pm 15.3 9.7 1.4 39 6.1 W 20 39 11 21 1001.4 1001.4 0.0
23/01:38pm 15.0 7.9 1.2 39 6.0 W 28 56 15 30 1001.2 1001.2 0.0
23/01:30pm 15.3 9.0 1.8 40 5.9 W 24 43 13 23 1001.0 1001.0 0.0
23/01:00pm 15.2 7.9 2.7 43 5.6 WNW 30 61 16 33 1000.6 1000.6 0.0
23/12:30pm 14.9 8.0 2.4 43 5.6 WNW 28 52 15 28 1000.6 1000.6 0.0
23/12:15pm 14.8 7.9 2.4 43 5.5 WNW 28 56 15 30 1000.6 1000.6 0.0
23/12:00pm 15.0 9.2 2.5 43 5.6 W 22 46 12 25 1000.8 1000.8 0.0
23/11:30am 14.7 9.6 3.2 46 5.2 W 19 39 10 21 1000.6 1000.6 0.0
23/11:00am 14.4 8.4 3.2 47 5.1 WNW 24 52 13 28 1000.8 1000.8 0.0
23/10:30am 14.2 8.5 2.8 46 5.1 WNW 22 43 12 23 1000.4 1000.4 0.0
23/10:00am 14.1 8.7 2.7 46 5.1 W 20 52 11 28 1000.3 1000.3 0.0
23/09:30am 13.6 6.6 1.9 45 5.1 WNW 28 56 15 30 999.7 999.7 0.0
23/09:04am 13.1 6.1 1.8 46 4.9 WNW 28 61 15 33 999.1 999.1 0.0
23/09:00am 13.3 7.2 2.5 48 4.8 WNW 24 54 13 29 999.0 999.0 3.8
23/08:30am 12.4 5.1 2.3 50 4.4 WNW 30 54 16 29 998.3 998.2 3.8
23/08:00am 12.1 4.3 2.0 50 4.4 WNW 32 54 17 29 998.9 998.9 3.8
23/07:49am 12.1 4.7 2.0 50 4.3 WNW 30 50 16 27 999.1 999.1 3.8
23/07:30am 11.8 6.3 2.0 51 4.2 W 20 39 11 21 999.8 999.8 3.8
23/07:00am 11.6 6.8 2.4 53 4.0 WNW 17 41 9 22 999.2 999.2 3.8
23/06:30am 12.1 4.6 1.4 48 4.5 WNW 30 52 16 28 997.7 997.6 3.8
23/06:22am 12.2 5.1 1.2 47 4.7 WNW 28 54 15 29 998.1 998.0 3.8
23/06:00am 12.2 6.4 2.1 50 4.4 WNW 22 41 12 22 997.7 997.6 3.8
23/05:50am 12.4 5.4 2.0 49 4.5 WNW 28 54 15 29 997.4 997.3 3.8
23/05:30am 12.1 5.7 3.3 55 3.9 NW 26 48 14 26 997.1 997.1 3.8
23/05:04am 13.6 6.7 2.5 47 4.9 WNW 28 48 15 26 996.6 996.6 3.8
23/05:00am 13.7 7.6 2.6 47 4.9 WNW 24 46 13 25 996.4 996.4 3.8
23/04:30am 14.0 8.4 3.5 49 4.7 WNW 22 43 12 23 996.1 996.1 3.8
23/04:00am 14.4 8.5 3.8 49 4.9 WNW 24 50 13 27 995.8 995.8 3.8
23/03:50am 14.4 7.8 4.1 50 4.7 WNW 28 56 15 30 995.9 995.9 3.8
23/03:30am 14.2 9.2 4.8 53 4.4 WNW 20 50 11 27 995.7 995.7 3.8
23/03:15am 14.4 7.9 4.7 52 4.5 WNW 28 63 15 34 995.5 995.5 3.8
23/03:00am 14.7 8.7 5.2 53 4.5 WNW 26 54 14 29 995.7 995.7 3.8
23/02:54am 14.9 8.5 5.4 53 4.5 WNW 28 54 15 29 995.8 995.8 3.8
23/02:30am 15.5 9.9 7.0 57 4.2 WNW 26 50 14 27 996.0 996.0 3.8
23/02:09am 16.4 10.3 6.5 52 4.9 WNW 28 52 15 28 995.4 995.4 3.8
23/02:00am 16.3 10.9 6.4 52 4.9 WNW 24 46 13 25 995.1 995.1 3.8
23/01:30am 16.2 11.6 5.8 50 5.0 WNW 19 35 10 19 995.1 995.1 3.8
23/01:00am 16.5 11.0 6.1 50 5.1 WNW 24 44 13 24 995.8 995.8 3.8
23/12:30am 16.8 12.8 6.6 51 5.0 W 17 35 9 19 995.3 995.3 3.8
23/12:00am 17.3 12.9 7.6 53 4.9 WNW 20 41 11 22 995.3 995.3 3.8
 
Date/Time
EST
Temp
°C
App
Temp
°C
Dew
Point
°C
Rel
Hum
%
Delta-T
°C
Wind Press
QNH
hPa
Press
MSL
hPa
Rain since
9am
mm
Dir  Spd
km/h
Gust
km/h
Spd
kts
Gust
kts
22/11:30pm 17.9 14.4 8.7 55 4.8 WNW 17 35 9 19 995.5 995.5 3.8
22/11:00pm 18.2 15.3 9.5 57 4.6 W 15 32 8 17 995.5 995.5 3.8
22/10:30pm 18.4 16.4 11.5 64 3.8 W 13 26 7 14 995.6 995.6 3.8
22/10:00pm 18.3 16.7 12.7 70 3.2 NW 13 22 7 12 995.6 995.6 3.8

Latest Capital City Observations: Canberra | Sydney | Melbourne | Brisbane | Adelaide | Perth | Hobart | Darwin

Other Formats:

Comma delimited format used in spreadsheet applications
http://www.bom.gov.au/fwo/IDN60903/IDN60903.94938.axf

JavaScript Object Notation format (JSON) in row-major order
http://www.bom.gov.au/fwo/IDN60903/IDN60903.94938.json